Latest Weather Observations for Adelaide Airport

IDS60901

Issued at 5:31 pm CST Sunday 19 April 2015 (issued every 10 minutes, with the page automatically refreshed every 10 minutes)

About weather observations | Map of Adelaide area stations | Latest observations for Adelaide area | Other Formats
Station Details ID: 023034 Name: ADELAIDE AIRPORT Lat: -34.95 Lon: 138.52 Height: 2.0 m
Data from the previous 72 hours. | See also: Recent months at Adelaide Airport
Date/Time
CST
Tmp

°C
App
Tmp
°C
Dew
Point
°C
Rel
Hum
%
Delta-T

°C
Wind Press
QNH
hPa
Press
MSL
hPa
Rain
since
9 am
mm
Dir
 
Spd
km/h
Gust
km/h
Spd
kts
Gust
kts
19/05:30pm 14.0 7.0 4.0 51 4.5 SSE 30 39 16 21 1034.4 - 0.0
19/05:00pm 14.5 8.2 1.8 42 5.5 SSE 24 32 13 17 1034.1 - 0.0
19/04:30pm 15.3 9.4 1.4 39 6.0 SE 22 28 12 15 1033.9 - 0.0
19/04:00pm 15.8 9.7 2.5 40 5.9 S 24 33 13 18 1033.8 - 0.0
19/03:30pm 15.3 7.5 1.7 39 5.9 SSE 32 37 17 20 1033.4 - 0.0
19/03:00pm 15.3 7.6 2.1 41 5.8 S 32 39 17 21 1033.5 1033.5 0.0
19/02:30pm 15.6 9.5 2.5 41 5.8 SSE 24 33 13 18 1033.1 - 0.0
19/02:00pm 16.8 10.9 1.9 36 6.6 SSE 22 37 12 20 1032.8 - 0.0
19/01:30pm 16.7 11.5 2.7 39 6.3 SE 19 28 10 15 1032.8 - 0.0
19/01:00pm 15.3 9.6 4.7 49 4.9 SSE 24 30 13 16 1033.1 - 0.0
19/12:30pm 14.5 7.8 3.6 48 4.9 SSE 28 37 15 20 1033.4 - 0.0
19/11:30am 14.1 7.6 4.7 53 4.3 SE 28 37 15 20 1033.7 - 0.0
19/11:00am 15.5 11.0 6.1 53 4.5 ESE 19 26 10 14 1033.4 - 0.0
19/10:30am 13.8 6.5 4.3 52 4.3 SSE 32 43 17 23 1033.3 - 0.0
19/10:00am 15.2 9.5 2.9 43 5.5 SSE 22 32 12 17 1032.9 - 0.0
19/09:30am 14.5 10.1 5.0 53 4.4 S 17 26 9 14 1033.0 - 0.0
19/09:00am 13.9 10.0 5.3 56 4.0 SE 15 19 8 10 1032.7 1032.7 3.2
19/08:00am 11.9 8.7 5.1 63 3.1 S 11 15 6 8 1031.5 - 3.2
19/07:30am 9.5 8.7 6.7 83 1.3 CALM 0 0 0 0 1030.6 - 3.2
19/07:00am 8.1 7.0 5.2 82 1.3 CALM 0 0 0 0 1029.9 - 3.2
19/06:30am 9.9 8.9 5.5 74 2.0 CALM 0 0 0 0 1029.4 - 3.2
19/05:30am 10.5 7.8 5.7 72 2.2 S 9 11 5 6 1028.5 - 3.2
19/05:00am 9.3 7.5 5.5 77 1.7 SSE 4 6 2 3 1027.9 - 3.2
19/04:30am 9.7 6.9 5.2 73 2.0 SSE 9 11 5 6 1027.4 - 3.2
19/04:00am 9.9 6.8 5.5 74 2.0 SSE 11 15 6 8 1027.1 - 3.2
19/03:00am 9.7 7.1 6.0 78 1.7 S 9 13 5 7 1026.4 1026.4 3.2
19/02:30am 9.2 6.5 5.7 79 1.6 SSE 9 11 5 6 1026.4 - 3.2
19/02:00am 9.6 7.5 6.6 81 1.4 SSE 7 9 4 5 1026.1 - 3.2
19/01:30am 9.5 7.0 6.7 83 1.3 ESE 9 11 5 6 1026.0 - 3.2
19/12:30am 11.2 8.0 6.7 74 2.1 SSE 13 15 7 8 1025.5 - 3.2
 
Date/Time
CST
Tmp

°C
App
Tmp
°C
Dew
Point
°C
Rel
Hum
%
Delta-T

°C
Wind Press
QNH
hPa
Press
MSL
hPa
Rain
since
9 am
mm
Dir
 
Spd
km/h
Gust
km/h
Spd
kts
Gust
kts
18/11:30pm 11.6 9.2 7.2 74 2.1 SSE 9 11 5 6 1025.0 - 3.2
18/11:00pm 11.3 9.0 7.5 77 1.8 S 9 11 5 6 1024.8 - 3.2
18/10:00pm 12.3 8.1 7.5 72 2.3 S 19 28 10 15 1024.3 - 3.2
18/09:30pm 13.1 8.9 8.2 72 2.4 S 20 30 11 16 1023.7 - 3.0
18/09:00pm 13.7 9.4 7.8 67 2.9 S 20 28 11 15 1023.2 1023.2 3.0
18/08:30pm 13.6 10.8 8.4 71 2.6 SSE 13 19 7 10 1022.5 - 3.0
18/08:00pm 13.7 10.5 8.5 71 2.6 SSE 15 22 8 12 1022.0 - 3.0
18/07:30pm 13.8 10.5 9.5 75 2.2 S 17 22 9 12 1021.4 - 3.0
18/07:00pm 13.8 11.5 10.3 79 1.8 S 13 15 7 8 1020.9 - 3.0
18/06:30pm 13.8 10.8 10.5 80 1.7 S 17 19 9 10 1020.1 - 3.0
18/06:00pm 13.9 10.8 11.6 86 1.2 S 19 26 10 14 1019.8 1019.8 3.0
18/05:30pm 13.9 11.0 12.2 89 0.9 S 19 28 10 15 1019.2 - 3.0
18/05:14pm 14.1 10.6 12.2 88 1.0 S 22 32 12 17 1018.9 - 3.0
18/05:00pm 14.0 9.1 12.5 91 0.8 SSW 30 44 16 24 1018.8 - 3.0
18/04:45pm 14.7 9.2 11.7 82 1.6 SSW 32 50 17 27 1018.4 - 2.8
18/04:30pm 14.8 9.2 11.4 80 1.8 S 32 46 17 25 1018.2 - 2.6
18/04:15pm 14.7 9.5 12.7 88 1.1 SSW 32 50 17 27 1017.8 - 2.6
18/04:00pm 14.9 10.0 13.6 92 0.7 SSW 32 44 17 24 1017.4 - 2.6
18/03:37pm 15.4 11.1 14.5 94 0.5 SSW 30 43 16 23 1017.1 - 2.6
18/03:30pm 15.3 11.1 14.6 96 0.4 SSW 30 41 16 22 1017.0 - 2.6
18/03:24pm 15.5 11.7 14.6 94 0.5 SSW 28 35 15 19 1016.9 - 1.8
18/03:00pm 17.6 12.6 14.1 80 2.0 WNW 33 46 18 25 1016.5 1016.5 0.0
18/02:50pm 18.6 13.8 13.9 74 2.7 WNW 32 39 17 21 1016.4 - 0.0
18/02:30pm 18.1 14.2 14.5 79 2.1 WNW 28 37 15 20 1016.3 - 0.0
18/02:00pm 18.8 14.3 13.7 72 2.9 NW 30 37 16 20 1016.6 - 0.0
18/01:30pm 18.1 13.4 14.3 78 2.2 NW 32 39 17 21 1016.9 - 0.0
18/12:59pm 18.1 14.2 14.5 79 2.1 NW 28 37 15 20 1017.2 - 0.0
18/12:30pm 18.2 13.9 14.4 78 2.2 NW 30 35 16 19 1017.5 - 0.0
18/12:21pm 17.3 13.3 14.1 81 1.8 NW 28 35 15 19 1017.7 - 0.0
18/12:00pm 16.5 11.9 14.6 88 1.1 NW 32 41 17 22 1018.0 1018.0 0.0
18/11:55am 16.7 11.8 14.2 85 1.4 NW 33 41 18 22 1018.1 - 0.0
18/11:30am 17.3 12.0 13.2 77 2.3 NW 33 41 18 22 1018.3 - 0.0
18/11:00am 17.4 12.8 13.5 78 2.2 WNW 30 39 16 21 1018.3 - 0.0
18/10:48am 17.2 12.8 12.9 76 2.4 NW 28 39 15 21 1018.3 - 0.0
18/10:30am 16.2 11.8 12.8 80 1.9 WNW 28 35 15 19 1018.3 - 0.0
18/10:00am 17.2 12.3 11.3 68 3.2 NW 28 35 15 19 1018.4 - 0.0
18/09:30am 16.7 12.8 10.9 68 3.1 NW 22 32 12 17 1018.4 - 0.0
18/09:00am 16.6 12.3 10.6 67 3.2 NW 24 32 13 17 1018.4 1018.4 0.2
18/08:30am 16.5 12.8 10.2 66 3.3 NW 20 28 11 15 1018.3 - 0.2
18/08:00am 16.5 12.9 10.0 65 3.4 WNW 19 26 10 14 1017.9 - 0.2
18/07:30am 15.8 13.6 9.4 65 3.3 WNW 11 13 6 7 1017.5 - 0.2
18/07:00am 15.0 11.3 9.6 70 2.8 W 19 26 10 14 1017.3 - 0.2
18/06:30am 15.0 12.1 9.8 71 2.7 W 15 20 8 11 1017.1 - 0.2
18/06:00am 14.6 12.0 9.5 71 2.6 WNW 13 19 7 10 1016.8 1016.8 0.2
18/05:30am 15.3 11.0 9.5 68 3.0 W 22 28 12 15 1016.7 - 0.2
18/05:00am 15.5 11.1 10.4 71 2.7 W 24 30 13 16 1016.3 - 0.2
18/04:30am 15.7 11.9 11.0 73 2.5 W 22 30 12 16 1016.1 - 0.2
18/04:00am 15.4 12.8 13.1 86 1.3 WSW 19 28 10 15 1015.9 - 0.2
18/03:29am 14.8 14.9 12.8 88 1.1 NE 4 9 2 5 1015.9 - 0.2
18/03:00am 14.7 15.5 12.5 87 1.2 CALM 0 0 0 0 1016.0 1016.0 0.2
18/02:30am 14.7 15.4 12.1 84 1.4 CALM 0 0 0 0 1016.1 - 0.2
18/02:00am 14.7 15.4 12.1 84 1.4 CALM 0 0 0 0 1016.4 - 0.2
18/01:30am 14.6 15.3 12.2 85 1.3 CALM 0 0 0 0 1016.6 - 0.2
18/01:00am 14.5 15.2 12.3 87 1.2 CALM 0 0 0 0 1016.6 - 0.2
18/12:30am 14.5 15.2 12.1 85 1.3 CALM 0 4 0 2 1016.7 - 0.2
18/12:00am 14.4 13.4 12.2 87 1.2 SE 9 11 5 6 1016.8 1016.8 0.2
 
Date/Time
CST
Tmp

°C
App
Tmp
°C
Dew
Point
°C
Rel
Hum
%
Delta-T

°C
Wind Press
QNH
hPa
Press
MSL
hPa
Rain
since
9 am
mm
Dir
 
Spd
km/h
Gust
km/h
Spd
kts
Gust
kts
17/11:30pm 14.4 12.9 12.0 85 1.3 SE 11 13 6 7 1017.0 - 0.2
17/11:00pm 14.4 13.0 12.2 87 1.2 S 11 15 6 8 1017.2 - 0.2
17/10:48pm 14.5 13.6 12.5 88 1.1 S 9 11 5 6 1017.2 - 0.2
17/10:30pm 14.0 13.3 12.1 88 1.0 SSW 7 9 4 5 1017.5 - 0.2
17/10:00pm 14.5 14.9 12.5 88 1.1 S 2 9 1 5 1017.4 - 0.2
17/09:30pm 14.6 15.1 12.8 89 1.0 SSE 2 6 1 3 1017.0 - 0.0
17/09:00pm 14.5 13.6 12.5 88 1.1 SSE 9 11 5 6 1016.9 1016.9 0.0
17/08:30pm 14.7 13.8 12.5 87 1.2 SSE 9 11 5 6 1017.0 - 0.0
17/08:00pm 14.6 12.9 12.6 88 1.1 S 13 17 7 9 1017.0 - 0.0
17/07:42pm 14.7 13.1 12.7 88 1.1 S 13 17 7 9 1017.2 - 0.0
17/07:30pm 15.1 14.5 12.3 83 1.5 SSW 7 13 4 7 1017.1 - 0.0
17/07:00pm 15.2 14.6 12.3 83 1.6 NE 7 9 4 5 1016.7 - 0.0
17/06:30pm 15.3 14.2 11.8 79 1.9 NE 9 11 5 6 1016.2 - 0.0
17/06:00pm 15.2 13.7 11.9 81 1.8 SE 11 13 6 7 1016.0 1016.0 0.0
17/05:30pm 15.3 13.0 11.8 79 1.9 SSE 15 19 8 10 1015.8 - 0.0
17/05:00pm 15.6 14.0 11.7 77 2.1 SE 11 15 6 8 1015.6 - 0.0
17/04:30pm 15.5 13.7 12.0 79 1.9 ESE 13 19 7 10 1015.6 - 0.0
17/04:00pm 15.4 13.0 12.5 83 1.6 SE 17 24 9 13 1015.5 - 0.0
17/03:30pm 15.9 13.1 11.4 74 2.4 SE 17 22 9 12 1015.8 - 0.0
17/03:00pm 16.2 13.5 11.8 75 2.4 SSE 17 20 9 11 1015.7 1015.7 0.0
17/02:30pm 16.5 13.7 11.5 72 2.7 SE 17 22 9 12 1015.8 - 0.0
17/02:00pm 16.3 14.4 11.7 74 2.5 SE 13 19 7 10 1016.1 - 0.0
17/01:30pm 16.3 15.5 11.7 74 2.5 SE 7 17 4 9 1016.6 - 0.0
17/01:00pm 16.0 14.1 11.8 76 2.3 S 13 20 7 11 1017.1 - 0.0
17/12:30pm 16.4 15.6 11.8 74 2.5 SE 7 11 4 6 1017.7 - 0.0
17/12:00pm 16.2 15.0 11.6 74 2.5 ENE 9 15 5 8 1018.3 1018.3 0.0
17/11:30am 16.3 14.9 12.1 76 2.3 SSE 11 15 6 8 1018.7 - 0.0
17/11:00am 15.3 12.6 11.6 78 2.0 SSE 17 26 9 14 1019.2 - 0.0
17/10:30am 15.4 11.4 11.9 79 1.9 SSE 24 30 13 16 1019.4 - 0.0
17/10:00am 14.9 12.4 12.3 84 1.4 SSE 17 20 9 11 1020.0 - 0.0
17/09:30am 14.4 12.3 12.4 88 1.1 SSE 15 19 8 10 1020.6 - 0.0
17/09:00am 13.6 11.4 12.1 91 0.8 SSE 15 17 8 9 1020.7 1020.7 11.0
17/08:45am 13.6 11.7 11.9 89 0.9 SSE 13 17 7 9 1021.0 - 11.0
17/08:30am 13.7 12.2 11.8 88 1.0 SSE 11 15 6 8 1021.1 - 10.8
17/08:00am 13.4 12.0 12.1 92 0.7 SSE 11 13 6 7 1020.8 - 10.8
17/07:30am 13.7 12.1 11.4 86 1.2 E 11 15 6 8 1020.4 - 10.8
17/07:00am 13.9 11.5 11.3 84 1.4 E 15 22 8 12 1020.2 - 10.8
17/06:30am 13.6 12.7 11.5 87 1.1 ESE 7 13 4 7 1020.0 - 10.8
17/06:00am 13.5 11.1 11.4 87 1.1 ESE 15 20 8 11 1019.7 1019.7 10.8
17/05:30am 13.4 11.5 11.7 89 0.9 ESE 13 17 7 9 1020.6 - 10.6
17/05:00am 13.4 11.1 11.9 91 0.8 SE 15 19 8 10 1021.0 - 10.2
17/04:30am 13.4 12.0 12.1 92 0.7 S 11 15 6 8 1020.8 - 9.8
17/04:00am 13.3 11.9 12.2 93 0.6 SSE 11 13 6 7 1020.8 - 9.8
17/03:30am 13.4 11.7 12.5 94 0.5 SE 13 15 7 8 1021.1 - 9.6
17/03:00am 13.6 12.7 12.7 94 0.5 SSE 9 11 5 6 1021.5 1021.5 9.0
17/02:30am 13.8 13.4 12.9 94 0.5 SSW 7 9 4 5 1021.8 - 8.4
17/02:00am 14.0 13.2 12.9 93 0.6 SSW 9 9 5 5 1021.8 - 7.8
17/01:30am 14.2 13.9 13.3 94 0.5 S 7 9 4 5 1022.1 - 7.4
17/01:00am 14.2 15.2 13.1 93 0.6 CALM 0 0 0 0 1022.4 - 6.8
17/12:30am 14.3 15.2 12.8 91 0.8 CALM 0 0 0 0 1022.5 - 6.4
17/12:00am 14.4 13.6 12.8 90 0.9 ESE 9 11 5 6 1023.1 1023.1 6.2
 
Date/Time
CST
Tmp

°C
App
Tmp
°C
Dew
Point
°C
Rel
Hum
%
Delta-T

°C
Wind Press
QNH
hPa
Press
MSL
hPa
Rain
since
9 am
mm
Dir
 
Spd
km/h
Gust
km/h
Spd
kts
Gust
kts
16/11:30pm 14.7 13.4 12.5 87 1.2 ESE 11 15 6 8 1023.3 - 5.8
16/11:00pm 14.9 13.3 12.9 88 1.1 ESE 13 17 7 9 1023.5 - 5.4
16/10:30pm 15.1 13.6 13.1 88 1.1 ESE 13 19 7 10 1023.6 - 5.2
16/10:00pm 15.3 13.5 13.3 88 1.1 ESE 15 17 8 9 1023.8 - 5.2
16/09:30pm 15.1 14.7 14.0 93 0.6 SE 9 13 5 7 1024.3 - 5.0
16/09:00pm 15.2 14.9 14.3 94 0.5 SSE 9 11 5 6 1024.7 1024.7 4.6
16/08:30pm 15.4 13.5 14.2 92 0.7 SSE 17 19 9 10 1024.7 - 4.0
16/08:00pm 15.5 14.8 14.3 92 0.7 SSE 11 15 6 8 1024.7 - 3.6
16/07:30pm 15.8 15.5 14.4 91 0.8 SSE 9 11 5 6 1024.6 - 3.2
16/07:00pm 16.0 15.8 14.8 93 0.7 SSE 9 11 5 6 1024.5 - 3.2
16/06:30pm 16.2 16.6 14.8 91 0.8 S 6 9 3 5 1024.1 - 3.0
16/06:00pm 16.6 17.2 15.7 94 0.5 S 7 7 4 4 1023.7 1023.7 3.0

Latest Capital City Observations: Canberra | Sydney | Melbourne | Brisbane | Adelaide | Perth | Hobart | Darwin

Other Formats:

Comma delimited format used in spreadsheet applications
http://www.bom.gov.au/fwo/IDS60901/IDS60901.94672.axf

JavaScript Object Notation format (JSON) in row-major order
http://www.bom.gov.au/fwo/IDS60901/IDS60901.94672.json